sensor_id;sensor_type;location;lat;lon;timestamp;pressure;altitude;pressure_sealevel;temperature;humidity
7182;BME280;3632;42.724;23.298;2023-04-26T00:00:17;94189.09;;;8.50;100.00
7182;BME280;3632;42.724;23.298;2023-04-26T00:02:45;94451.31;;;10.73;100.00
7182;BME280;3632;42.724;23.298;2023-04-26T00:05:12;94457.41;;;10.90;100.00
7182;BME280;3632;42.724;23.298;2023-04-26T00:07:41;94449.19;;;10.96;100.00
7182;BME280;3632;42.724;23.298;2023-04-26T00:10:09;94236.78;;;9.51;100.00
7182;BME280;3632;42.724;23.298;2023-04-26T00:12:36;94439.03;;;10.86;100.00
7182;BME280;3632;42.724;23.298;2023-04-26T00:15:06;94472.97;;;10.87;100.00
7182;BME280;3632;42.724;23.298;2023-04-26T00:17:34;94439.50;;;10.99;100.00
7182;BME280;3632;42.724;23.298;2023-04-26T00:20:00;94407.22;;;10.90;100.00
7182;BME280;3632;42.724;23.298;2023-04-26T00:22:30;94422.41;;;11.10;100.00
7182;BME280;3632;42.724;23.298;2023-04-26T00:24:58;94421.16;;;11.14;100.00
7182;BME280;3632;42.724;23.298;2023-04-26T00:27:25;94426.94;;;11.16;100.00
7182;BME280;3632;42.724;23.298;2023-04-26T00:29:52;94498.19;;;10.90;100.00
7182;BME280;3632;42.724;23.298;2023-04-26T00:32:18;94425.72;;;10.92;100.00
7182;BME280;3632;42.724;23.298;2023-04-26T00:34:45;94425.00;;;11.00;100.00
7182;BME280;3632;42.724;23.298;2023-04-26T00:37:12;94416.38;;;10.83;100.00
7182;BME280;3632;42.724;23.298;2023-04-26T00:39:38;94414.34;;;10.60;100.00
7182;BME280;3632;42.724;23.298;2023-04-26T00:42:06;94416.94;;;10.50;100.00
7182;BME280;3632;42.724;23.298;2023-04-26T00:44:33;94411.63;;;10.34;100.00
7182;BME280;3632;42.724;23.298;2023-04-26T00:47:00;94411.88;;;10.40;100.00
7182;BME280;3632;42.724;23.298;2023-04-26T00:49:27;94111.19;;;8.41;100.00
7182;BME280;3632;42.724;23.298;2023-04-26T00:51:56;94417.75;;;10.50;100.00
7182;BME280;3632;42.724;23.298;2023-04-26T00:54:23;94419.91;;;10.45;100.00
7182;BME280;3632;42.724;23.298;2023-04-26T00:56:50;94419.97;;;10.63;100.00
7182;BME280;3632;42.724;23.298;2023-04-26T00:59:20;94363.53;;;10.31;100.00
7182;BME280;3632;42.724;23.298;2023-04-26T01:01:46;94455.59;;;10.36;100.00
7182;BME280;3632;42.724;23.298;2023-04-26T01:04:13;93970.06;;;7.54;100.00
7182;BME280;3632;42.724;23.298;2023-04-26T01:06:40;94426.41;;;10.58;100.00
7182;BME280;3632;42.724;23.298;2023-04-26T01:09:07;94426.16;;;10.61;100.00
7182;BME280;3632;42.724;23.298;2023-04-26T01:11:37;94427.13;;;10.50;100.00
7182;BME280;3632;42.724;23.298;2023-04-26T01:14:04;94432.44;;;10.10;100.00
7182;BME280;3632;42.724;23.298;2023-04-26T01:16:34;94439.31;;;9.90;100.00
7182;BME280;3632;42.724;23.298;2023-04-26T01:19:06;94441.31;;;9.87;100.00
7182;BME280;3632;42.724;23.298;2023-04-26T01:21:33;94432.25;;;9.84;100.00
7182;BME280;3632;42.724;23.298;2023-04-26T01:24:02;94420.13;;;10.15;100.00
7182;BME280;3632;42.724;23.298;2023-04-26T01:26:29;94415.19;;;9.94;100.00
7182;BME280;3632;42.724;23.298;2023-04-26T01:28:56;94414.44;;;9.65;100.00
7182;BME280;3632;42.724;23.298;2023-04-26T01:31:23;94418.53;;;9.95;100.00
7182;BME280;3632;42.724;23.298;2023-04-26T01:33:50;94536.31;;;9.97;100.00
7182;BME280;3632;42.724;23.298;2023-04-26T01:36:17;94419.34;;;10.05;100.00
7182;BME280;3632;42.724;23.298;2023-04-26T01:38:43;94455.78;;;10.15;100.00
7182;BME280;3632;42.724;23.298;2023-04-26T01:41:11;94424.97;;;10.18;100.00
7182;BME280;3632;42.724;23.298;2023-04-26T01:43:38;94415.69;;;10.27;100.00
7182;BME280;3632;42.724;23.298;2023-04-26T01:46:05;93890.88;;;6.54;100.00
7182;BME280;3632;42.724;23.298;2023-04-26T01:48:31;94431.44;;;10.40;100.00
7182;BME280;3632;42.724;23.298;2023-04-26T01:50:58;93848.19;;;6.70;100.00
7182;BME280;3632;42.724;23.298;2023-04-26T01:53:25;94464.88;;;9.89;100.00
7182;BME280;3632;42.724;23.298;2023-04-26T01:55:51;94428.22;;;10.47;100.00
7182;BME280;3632;42.724;23.298;2023-04-26T01:58:21;94429.84;;;10.39;100.00
7182;BME280;3632;42.724;23.298;2023-04-26T02:00:47;94428.44;;;10.07;100.00
7182;BME280;3632;42.724;23.298;2023-04-26T02:03:15;94413.41;;;10.14;100.00
7182;BME280;3632;42.724;23.298;2023-04-26T02:05:42;94383.44;;;9.89;100.00
7182;BME280;3632;42.724;23.298;2023-04-26T02:08:08;94409.81;;;10.07;100.00
7182;BME280;3632;42.724;23.298;2023-04-26T02:10:35;94405.94;;;10.03;100.00
7182;BME280;3632;42.724;23.298;2023-04-26T02:13:03;94411.94;;;10.02;100.00
7182;BME280;3632;42.724;23.298;2023-04-26T02:15:31;94409.47;;;9.83;100.00
7182;BME280;3632;42.724;23.298;2023-04-26T02:17:58;94397.38;;;9.85;100.00
7182;BME280;3632;42.724;23.298;2023-04-26T02:20:25;94403.16;;;9.68;100.00
7182;BME280;3632;42.724;23.298;2023-04-26T02:22:51;94363.72;;;9.54;100.00
7182;BME280;3632;42.724;23.298;2023-04-26T02:25:18;94123.41;;;7.59;100.00
7182;BME280;3632;42.724;23.298;2023-04-26T02:27:45;94395.31;;;9.32;100.00
7182;BME280;3632;42.724;23.298;2023-04-26T02:30:12;94395.84;;;9.26;100.00
7182;BME280;3632;42.724;23.298;2023-04-26T02:32:40;94409.22;;;9.28;100.00
7182;BME280;3632;42.724;23.298;2023-04-26T02:35:07;94406.81;;;9.36;100.00
7182;BME280;3632;42.724;23.298;2023-04-26T02:37:35;94458.75;;;9.43;100.00
7182;BME280;3632;42.724;23.298;2023-04-26T02:40:02;94415.91;;;9.58;100.00
7182;BME280;3632;42.724;23.298;2023-04-26T02:42:30;94117.84;;;7.85;100.00
7182;BME280;3632;42.724;23.298;2023-04-26T02:44:57;94422.03;;;9.94;100.00
7182;BME280;3632;42.724;23.298;2023-04-26T02:47:23;94403.56;;;9.92;100.00
7182;BME280;3632;42.724;23.298;2023-04-26T02:49:52;94415.28;;;10.12;100.00
7182;BME280;3632;42.724;23.298;2023-04-26T02:52:18;94407.50;;;10.23;100.00
7182;BME280;3632;42.724;23.298;2023-04-26T02:54:45;94396.78;;;10.29;100.00
7182;BME280;3632;42.724;23.298;2023-04-26T02:57:12;94388.34;;;10.19;100.00
7182;BME280;3632;42.724;23.298;2023-04-26T02:59:39;94383.25;;;10.19;100.00
7182;BME280;3632;42.724;23.298;2023-04-26T03:02:05;94315.19;;;9.84;100.00
7182;BME280;3632;42.724;23.298;2023-04-26T03:04:32;94383.59;;;9.97;100.00
7182;BME280;3632;42.724;23.298;2023-04-26T03:07:02;94392.50;;;10.10;100.00
7182;BME280;3632;42.724;23.298;2023-04-26T03:09:29;94389.16;;;10.10;100.00
7182;BME280;3632;42.724;23.298;2023-04-26T03:11:56;94314.69;;;9.71;100.00
7182;BME280;3632;42.724;23.298;2023-04-26T03:14:22;94193.84;;;9.01;100.00
7182;BME280;3632;42.724;23.298;2023-04-26T03:16:49;94396.78;;;10.10;100.00
7182;BME280;3632;42.724;23.298;2023-04-26T03:19:16;94012.38;;;7.53;100.00
7182;BME280;3632;42.724;23.298;2023-04-26T03:21:43;94388.09;;;10.03;100.00
7182;BME280;3632;42.724;23.298;2023-04-26T03:24:11;94382.91;;;10.04;100.00
7182;BME280;3632;42.724;23.298;2023-04-26T03:26:38;94382.91;;;10.04;100.00
7182;BME280;3632;42.724;23.298;2023-04-26T03:29:04;94378.03;;;10.11;100.00
7182;BME280;3632;42.724;23.298;2023-04-26T03:31:31;94373.38;;;10.16;100.00
7182;BME280;3632;42.724;23.298;2023-04-26T03:33:58;94383.13;;;10.11;100.00
7182;BME280;3632;42.724;23.298;2023-04-26T03:36:25;94384.50;;;10.05;100.00
7182;BME280;3632;42.724;23.298;2023-04-26T03:38:53;94082.19;;;8.15;100.00
7182;BME280;3632;42.724;23.298;2023-04-26T03:41:21;94319.28;;;9.48;100.00
7182;BME280;3632;42.724;23.298;2023-04-26T03:43:48;94345.22;;;9.52;100.00
7182;BME280;3632;42.724;23.298;2023-04-26T03:46:15;94402.47;;;9.85;100.00
7182;BME280;3632;42.724;23.298;2023-04-26T03:48:42;94355.81;;;9.38;100.00
7182;BME280;3632;42.724;23.298;2023-04-26T03:51:08;94406.28;;;9.61;100.00
7182;BME280;3632;42.724;23.298;2023-04-26T03:53:35;94420.84;;;9.59;100.00
7182;BME280;3632;42.724;23.298;2023-04-26T03:56:02;94414.44;;;9.55;100.00
7182;BME280;3632;42.724;23.298;2023-04-26T03:58:30;94424.47;;;9.57;100.00
7182;BME280;3632;42.724;23.298;2023-04-26T04:00:56;94426.38;;;9.45;100.00
7182;BME280;3632;42.724;23.298;2023-04-26T04:03:23;94419.66;;;9.73;100.00
7182;BME280;3632;42.724;23.298;2023-04-26T04:05:50;94270.31;;;8.31;100.00
7182;BME280;3632;42.724;23.298;2023-04-26T04:08:17;94425.47;;;10.12;100.00
7182;BME280;3632;42.724;23.298;2023-04-26T04:10:44;94366.31;;;9.91;100.00
7182;BME280;3632;42.724;23.298;2023-04-26T04:13:11;94430.81;;;10.28;100.00
7182;BME280;3632;42.724;23.298;2023-04-26T04:15:39;94429.69;;;10.40;100.00
7182;BME280;3632;42.724;23.298;2023-04-26T04:18:06;94332.53;;;9.89;100.00
7182;BME280;3632;42.724;23.298;2023-04-26T04:20:32;94355.69;;;10.05;100.00
7182;BME280;3632;42.724;23.298;2023-04-26T04:22:59;94429.25;;;10.54;100.00
7182;BME280;3632;42.724;23.298;2023-04-26T04:25:28;94177.28;;;8.88;100.00
7182;BME280;3632;42.724;23.298;2023-04-26T04:27:55;94416.88;;;10.69;99.64
7182;BME280;3632;42.724;23.298;2023-04-26T04:30:22;94421.00;;;10.70;99.09
7182;BME280;3632;42.724;23.298;2023-04-26T04:32:51;94421.44;;;10.93;98.65
7182;BME280;3632;42.724;23.298;2023-04-26T04:35:18;94429.88;;;10.93;99.42
7182;BME280;3632;42.724;23.298;2023-04-26T04:37:45;94438.84;;;10.97;98.60
7182;BME280;3632;42.724;23.298;2023-04-26T04:40:14;94441.34;;;10.80;99.83
7182;BME280;3632;42.724;23.298;2023-04-26T04:42:41;94250.41;;;9.69;99.69
7182;BME280;3632;42.724;23.298;2023-04-26T04:45:09;94435.09;;;10.92;99.13
7182;BME280;3632;42.724;23.298;2023-04-26T04:47:36;94446.91;;;10.93;98.33
7182;BME280;3632;42.724;23.298;2023-04-26T04:50:06;94434.25;;;11.01;98.18
7182;BME280;3632;42.724;23.298;2023-04-26T04:52:33;94354.84;;;10.51;97.38
7182;BME280;3632;42.724;23.298;2023-04-26T04:55:01;94441.13;;;11.18;97.68
7182;BME280;3632;42.724;23.298;2023-04-26T04:57:28;94440.91;;;11.12;96.83
7182;BME280;3632;42.724;23.298;2023-04-26T04:59:55;94433.00;;;11.32;97.47
7182;BME280;3632;42.724;23.298;2023-04-26T05:02:21;94432.84;;;11.52;97.84
7182;BME280;3632;42.724;23.298;2023-04-26T05:04:48;94430.06;;;11.63;95.67
7182;BME280;3632;42.724;23.298;2023-04-26T05:07:16;94437.72;;;11.63;95.47
7182;BME280;3632;42.724;23.298;2023-04-26T05:09:43;94436.72;;;11.73;95.12
7182;BME280;3632;42.724;23.298;2023-04-26T05:12:10;94431.56;;;11.83;94.23
7182;BME280;3632;42.724;23.298;2023-04-26T05:14:36;94433.72;;;11.60;94.98
7182;BME280;3632;42.724;23.298;2023-04-26T05:17:05;94434.53;;;11.61;95.29
7182;BME280;3632;42.724;23.298;2023-04-26T05:19:31;94432.22;;;11.50;97.40
7182;BME280;3632;42.724;23.298;2023-04-26T05:21:58;94436.25;;;11.42;96.81
7182;BME280;3632;42.724;23.298;2023-04-26T05:24:28;94377.22;;;11.02;97.00
7182;BME280;3632;42.724;23.298;2023-04-26T05:26:57;94466.06;;;11.24;97.70
7182;BME280;3632;42.724;23.298;2023-04-26T05:29:24;94449.44;;;11.83;96.92
7182;BME280;3632;42.724;23.298;2023-04-26T05:31:54;94354.19;;;11.29;95.44
7182;BME280;3632;42.724;23.298;2023-04-26T05:34:22;94416.66;;;11.61;95.82
7182;BME280;3632;42.724;23.298;2023-04-26T05:36:48;94449.78;;;11.88;94.91
7182;BME280;3632;42.724;23.298;2023-04-26T05:39:15;94427.50;;;11.63;96.63
7182;BME280;3632;42.724;23.298;2023-04-26T05:41:45;94453.41;;;12.03;95.27
7182;BME280;3632;42.724;23.298;2023-04-26T05:44:12;94467.41;;;11.99;94.68
7182;BME280;3632;42.724;23.298;2023-04-26T05:46:39;94472.78;;;12.14;95.07
7182;BME280;3632;42.724;23.298;2023-04-26T05:49:06;94459.00;;;12.07;95.69
7182;BME280;3632;42.724;23.298;2023-04-26T05:51:32;94462.28;;;12.17;96.13
7182;BME280;3632;42.724;23.298;2023-04-26T05:53:59;94400.88;;;12.01;93.40
7182;BME280;3632;42.724;23.298;2023-04-26T05:56:26;94461.44;;;12.60;93.83
7182;BME280;3632;42.724;23.298;2023-04-26T05:58:54;94198.28;;;10.63;93.27
7182;BME280;3632;42.724;23.298;2023-04-26T06:01:21;94305.16;;;11.18;94.67
7182;BME280;3632;42.724;23.298;2023-04-26T06:03:48;94459.63;;;12.26;95.70
7182;BME280;3632;42.724;23.298;2023-04-26T06:06:15;94468.75;;;12.29;95.80
7182;BME280;3632;42.724;23.298;2023-04-26T06:08:43;94466.44;;;12.44;95.04
7182;BME280;3632;42.724;23.298;2023-04-26T06:11:10;94486.41;;;12.22;96.71
7182;BME280;3632;42.724;23.298;2023-04-26T06:13:36;94423.16;;;11.73;98.12
7182;BME280;3632;42.724;23.298;2023-04-26T06:16:05;94467.72;;;11.78;100.00
7182;BME280;3632;42.724;23.298;2023-04-26T06:18:32;94465.00;;;11.80;100.00
7182;BME280;3632;42.724;23.298;2023-04-26T06:20:59;94501.84;;;11.77;100.00
7182;BME280;3632;42.724;23.298;2023-04-26T06:23:26;94466.91;;;12.13;99.21
7182;BME280;3632;42.724;23.298;2023-04-26T06:25:53;94567.56;;;12.46;96.58
7182;BME280;3632;42.724;23.298;2023-04-26T06:28:20;94465.13;;;12.40;95.89
7182;BME280;3632;42.724;23.298;2023-04-26T06:30:47;94535.09;;;12.39;95.19
7182;BME280;3632;42.724;23.298;2023-04-26T06:33:15;94355.94;;;11.46;94.40
7182;BME280;3632;42.724;23.298;2023-04-26T06:35:42;94465.34;;;12.20;94.33
7182;BME280;3632;42.724;23.298;2023-04-26T06:38:09;94463.94;;;12.52;95.66
7182;BME280;3632;42.724;23.298;2023-04-26T06:40:36;94455.47;;;12.51;95.93
7182;BME280;3632;42.724;23.298;2023-04-26T06:43:03;94446.28;;;12.66;90.00
7182;BME280;3632;42.724;23.298;2023-04-26T06:45:30;94473.06;;;12.54;85.43
7182;BME280;3632;42.724;23.298;2023-04-26T06:47:57;94440.28;;;11.98;87.67
7182;BME280;3632;42.724;23.298;2023-04-26T06:50:26;94260.38;;;10.80;87.28
7182;BME280;3632;42.724;23.298;2023-04-26T06:52:53;94479.81;;;12.12;87.79
7182;BME280;3632;42.724;23.298;2023-04-26T06:55:20;94481.69;;;12.10;87.72
7182;BME280;3632;42.724;23.298;2023-04-26T06:57:48;94480.69;;;12.46;87.46
7182;BME280;3632;42.724;23.298;2023-04-26T07:00:15;94470.94;;;12.75;84.77
7182;BME280;3632;42.724;23.298;2023-04-26T07:02:42;94191.91;;;10.59;84.11
7182;BME280;3632;42.724;23.298;2023-04-26T07:05:09;94469.84;;;12.86;82.75
7182;BME280;3632;42.724;23.298;2023-04-26T07:07:37;93901.75;;;8.55;84.86
7182;BME280;3632;42.724;23.298;2023-04-26T07:10:05;94111.78;;;9.73;85.00
7182;BME280;3632;42.724;23.298;2023-04-26T07:12:32;94184.09;;;10.25;87.50
7182;BME280;3632;42.724;23.298;2023-04-26T07:14:59;93943.56;;;8.60;86.08
7182;BME280;3632;42.724;23.298;2023-04-26T07:17:26;94477.31;;;12.20;85.26
7182;BME280;3632;42.724;23.298;2023-04-26T07:19:53;94480.69;;;12.46;85.35
7182;BME280;3632;42.724;23.298;2023-04-26T07:22:20;94477.72;;;12.59;84.49
7182;BME280;3632;42.724;23.298;2023-04-26T07:24:48;94491.53;;;12.48;81.84
7182;BME280;3632;42.724;23.298;2023-04-26T07:27:16;94486.38;;;12.40;82.28
7182;BME280;3632;42.724;23.298;2023-04-26T07:29:42;94154.41;;;9.89;80.46
7182;BME280;3632;42.724;23.298;2023-04-26T07:32:10;94349.00;;;11.57;79.60
7182;BME280;3632;42.724;23.298;2023-04-26T07:34:37;94218.22;;;11.03;77.45
7182;BME280;3632;42.724;23.298;2023-04-26T07:37:04;94485.56;;;12.65;76.52
7182;BME280;3632;42.724;23.298;2023-04-26T07:39:31;94493.28;;;12.48;76.43
7182;BME280;3632;42.724;23.298;2023-04-26T07:41:59;94499.09;;;12.32;79.22
7182;BME280;3632;42.724;23.298;2023-04-26T07:44:27;94480.53;;;12.81;74.37
7182;BME280;3632;42.724;23.298;2023-04-26T07:46:54;94488.69;;;12.77;73.43
7182;BME280;3632;42.724;23.298;2023-04-26T07:49:21;94494.13;;;12.82;73.98
7182;BME280;3632;42.724;23.298;2023-04-26T07:51:48;94494.25;;;13.06;71.75
7182;BME280;3632;42.724;23.298;2023-04-26T07:54:16;94516.94;;;13.01;71.18
7182;BME280;3632;42.724;23.298;2023-04-26T07:56:43;94491.75;;;13.14;72.04
7182;BME280;3632;42.724;23.298;2023-04-26T07:59:11;94607.22;;;12.94;71.32
7182;BME280;3632;42.724;23.298;2023-04-26T08:01:39;94515.16;;;12.68;73.16
7182;BME280;3632;42.724;23.298;2023-04-26T08:04:06;94468.53;;;12.48;73.73
7182;BME280;3632;42.724;23.298;2023-04-26T08:06:33;94379.47;;;12.27;72.78
7182;BME280;3632;42.724;23.298;2023-04-26T08:09:00;94500.78;;;13.01;72.91
7182;BME280;3632;42.724;23.298;2023-04-26T08:11:28;94481.22;;;13.25;73.09
7182;BME280;3632;42.724;23.298;2023-04-26T08:13:55;94489.56;;;13.27;72.15
7182;BME280;3632;42.724;23.298;2023-04-26T08:16:23;94508.13;;;13.38;73.00
7182;BME280;3632;42.724;23.298;2023-04-26T08:18:50;94525.13;;;13.55;71.00
7182;BME280;3632;42.724;23.298;2023-04-26T08:21:17;94498.25;;;13.59;69.10
7182;BME280;3632;42.724;23.298;2023-04-26T08:23:44;94459.47;;;13.30;68.38
7182;BME280;3632;42.724;23.298;2023-04-26T08:26:11;94506.88;;;13.58;68.40
7182;BME280;3632;42.724;23.298;2023-04-26T08:28:38;94497.25;;;13.36;68.25
7182;BME280;3632;42.724;23.298;2023-04-26T08:31:05;94489.94;;;13.49;68.99
7182;BME280;3632;42.724;23.298;2023-04-26T08:33:33;94421.66;;;13.07;69.40
7182;BME280;3632;42.724;23.298;2023-04-26T08:36:00;94402.59;;;12.94;67.66
7182;BME280;3632;42.724;23.298;2023-04-26T08:38:27;94152.06;;;11.61;67.80
7182;BME280;3632;42.724;23.298;2023-04-26T08:40:58;94479.88;;;14.52;68.27
7182;BME280;3632;42.724;23.298;2023-04-26T08:43:27;94368.97;;;13.71;63.53
7182;BME280;3632;42.724;23.298;2023-04-26T08:45:54;94271.81;;;11.80;64.79
7182;BME280;3632;42.724;23.298;2023-04-26T08:48:25;94478.13;;;14.29;63.82
7182;BME280;3632;42.724;23.298;2023-04-26T08:50:55;94545.59;;;14.29;62.47
7182;BME280;3632;42.724;23.298;2023-04-26T08:53:22;94162.09;;;11.97;63.66
7182;BME280;3632;42.724;23.298;2023-04-26T08:55:50;94274.88;;;12.84;62.43
7182;BME280;3632;42.724;23.298;2023-04-26T08:58:17;94487.53;;;14.69;63.88
7182;BME280;3632;42.724;23.298;2023-04-26T09:00:45;93933.28;;;10.97;59.86
7182;BME280;3632;42.724;23.298;2023-04-26T09:03:12;94410.75;;;13.96;60.30
7182;BME280;3632;42.724;23.298;2023-04-26T09:05:40;94303.56;;;13.28;60.64
7182;BME280;3632;42.724;23.298;2023-04-26T09:08:13;94323.16;;;12.95;60.96
7182;BME280;3632;42.724;23.298;2023-04-26T09:10:41;94488.03;;;14.72;66.14
7182;BME280;3632;42.724;23.298;2023-04-26T09:13:10;94489.59;;;15.28;70.80
7182;BME280;3632;42.724;23.298;2023-04-26T09:15:37;93976.34;;;11.82;60.93
7182;BME280;3632;42.724;23.298;2023-04-26T09:18:18;94496.44;;;15.05;61.96
7182;BME280;3632;42.724;23.298;2023-04-26T09:21:00;94505.72;;;15.14;61.12
7182;BME280;3632;42.724;23.298;2023-04-26T09:23:29;94500.44;;;15.07;60.95
7182;BME280;3632;42.724;23.298;2023-04-26T09:26:14;94498.84;;;14.98;60.76
7182;BME280;3632;42.724;23.298;2023-04-26T09:28:42;94503.06;;;14.83;62.59
7182;BME280;3632;42.724;23.298;2023-04-26T09:31:08;94499.34;;;15.02;66.84
7182;BME280;3632;42.724;23.298;2023-04-26T09:33:35;94494.53;;;14.91;60.82
7182;BME280;3632;42.724;23.298;2023-04-26T09:36:10;94469.06;;;14.81;61.74
7182;BME280;3632;42.724;23.298;2023-04-26T09:38:42;94500.75;;;15.04;60.82
7182;BME280;3632;42.724;23.298;2023-04-26T09:41:09;94484.34;;;15.22;61.15
7182;BME280;3632;42.724;23.298;2023-04-26T09:43:36;94488.09;;;15.42;62.02
7182;BME280;3632;42.724;23.298;2023-04-26T09:46:03;94493.06;;;15.43;59.45
7182;BME280;3632;42.724;23.298;2023-04-26T09:48:33;94487.22;;;15.49;57.41
7182;BME280;3632;42.724;23.298;2023-04-26T09:51:08;94421.44;;;15.26;57.13
7182;BME280;3632;42.724;23.298;2023-04-26T09:53:37;94485.78;;;15.55;55.28
7182;BME280;3632;42.724;23.298;2023-04-26T09:56:07;94147.97;;;13.15;56.06
7182;BME280;3632;42.724;23.298;2023-04-26T09:58:36;94483.56;;;15.52;54.43
7182;BME280;3632;42.724;23.298;2023-04-26T10:01:04;94076.69;;;12.96;52.81
7182;BME280;3632;42.724;23.298;2023-04-26T10:03:33;94521.03;;;15.30;53.53
7182;BME280;3632;42.724;23.298;2023-04-26T10:06:00;94491.06;;;15.84;52.57
7182;BME280;3632;42.724;23.298;2023-04-26T10:08:27;94380.41;;;14.87;52.24
7182;BME280;3632;42.724;23.298;2023-04-26T10:10:54;94487.41;;;15.56;51.74
7182;BME280;3632;42.724;23.298;2023-04-26T10:13:22;94477.94;;;15.48;51.19
7182;BME280;3632;42.724;23.298;2023-04-26T10:15:49;93928.97;;;12.04;51.33
7182;BME280;3632;42.724;23.298;2023-04-26T10:18:16;94467.44;;;15.89;54.24
7182;BME280;3632;42.724;23.298;2023-04-26T10:20:46;94481.75;;;16.29;51.29
7182;BME280;3632;42.724;23.298;2023-04-26T10:23:18;94438.66;;;15.93;49.58
7182;BME280;3632;42.724;23.298;2023-04-26T10:25:45;94478.69;;;15.88;49.36
7182;BME280;3632;42.724;23.298;2023-04-26T10:28:12;94246.31;;;14.31;49.15
7182;BME280;3632;42.724;23.298;2023-04-26T10:30:57;94463.28;;;15.65;48.91
7182;BME280;3632;42.724;23.298;2023-04-26T10:33:24;94466.44;;;16.13;48.65
7182;BME280;3632;42.724;23.298;2023-04-26T10:36:10;94379.25;;;15.88;48.68
7182;BME280;3632;42.724;23.298;2023-04-26T10:38:39;94179.63;;;14.70;46.64
7182;BME280;3632;42.724;23.298;2023-04-26T10:41:28;94470.72;;;16.72;45.57
7182;BME280;3632;42.724;23.298;2023-04-26T10:43:57;94472.16;;;16.23;46.00
7182;BME280;3632;42.724;23.298;2023-04-26T10:46:36;94494.81;;;16.57;46.35
7182;BME280;3632;42.724;23.298;2023-04-26T10:49:14;94417.66;;;16.57;46.45
7182;BME280;3632;42.724;23.298;2023-04-26T10:52:08;94304.03;;;15.65;45.95
7182;BME280;3632;42.724;23.298;2023-04-26T10:54:53;94410.41;;;16.75;45.42
7182;BME280;3632;42.724;23.298;2023-04-26T10:57:21;94460.66;;;17.36;44.21
7182;BME280;3632;42.724;23.298;2023-04-26T11:03:02;94459.59;;;17.81;45.10
7182;BME280;3632;42.724;23.298;2023-04-26T11:05:40;94451.47;;;17.27;44.25
7182;BME280;3632;42.724;23.298;2023-04-26T11:08:14;94420.31;;;17.22;45.42
7182;BME280;3632;42.724;23.298;2023-04-26T11:10:41;94335.28;;;16.65;43.74
7182;BME280;3632;42.724;23.298;2023-04-26T11:13:08;94420.09;;;16.58;43.65
7182;BME280;3632;42.724;23.298;2023-04-26T11:15:35;94458.88;;;17.51;44.00
7182;BME280;3632;42.724;23.298;2023-04-26T11:18:04;94446.81;;;17.37;43.27
7182;BME280;3632;42.724;23.298;2023-04-26T11:20:34;93871.81;;;13.22;43.06
7182;BME280;3632;42.724;23.298;2023-04-26T11:23:00;94454.84;;;16.98;44.44
7182;BME280;3632;42.724;23.298;2023-04-26T11:25:28;94457.88;;;17.02;44.04
7182;BME280;3632;42.724;23.298;2023-04-26T11:27:58;94465.25;;;16.90;44.66
7182;BME280;3632;42.724;23.298;2023-04-26T11:30:27;94292.16;;;15.79;44.94
7182;BME280;3632;42.724;23.298;2023-04-26T11:32:55;94458.41;;;16.82;45.50
7182;BME280;3632;42.724;23.298;2023-04-26T11:35:23;94446.44;;;16.60;44.40
7182;BME280;3632;42.724;23.298;2023-04-26T11:37:50;93887.53;;;13.19;44.54
7182;BME280;3632;42.724;23.298;2023-04-26T11:40:17;94447.75;;;16.85;44.14
7182;BME280;3632;42.724;23.298;2023-04-26T11:42:44;94448.50;;;16.79;44.13
7182;BME280;3632;42.724;23.298;2023-04-26T11:45:14;94299.41;;;15.75;44.03
7182;BME280;3632;42.724;23.298;2023-04-26T11:47:42;94453.09;;;16.99;43.15
7182;BME280;3632;42.724;23.298;2023-04-26T11:50:10;94456.41;;;17.43;44.38
7182;BME280;3632;42.724;23.298;2023-04-26T11:52:38;94463.53;;;17.77;43.79
7182;BME280;3632;42.724;23.298;2023-04-26T11:55:07;94459.22;;;17.48;43.58
7182;BME280;3632;42.724;23.298;2023-04-26T11:57:34;94139.19;;;14.95;43.18
7182;BME280;3632;42.724;23.298;2023-04-26T12:00:11;94374.28;;;17.19;43.03
7182;BME280;3632;42.724;23.298;2023-04-26T12:02:42;94455.91;;;17.54;43.38
7182;BME280;3632;42.724;23.298;2023-04-26T12:05:09;94462.53;;;17.42;44.15
7182;BME280;3632;42.724;23.298;2023-04-26T12:07:38;94285.34;;;16.30;44.25
7182;BME280;3632;42.724;23.298;2023-04-26T12:10:14;94455.41;;;17.44;44.46
7182;BME280;3632;42.724;23.298;2023-04-26T12:12:46;94457.97;;;17.44;44.51
7182;BME280;3632;42.724;23.298;2023-04-26T12:15:14;94451.13;;;17.51;43.59
7182;BME280;3632;42.724;23.298;2023-04-26T12:17:53;94426.31;;;17.14;43.12
7182;BME280;3632;42.724;23.298;2023-04-26T12:20:32;94220.50;;;15.69;43.10
7182;BME280;3632;42.724;23.298;2023-04-26T12:23:03;94461.19;;;17.46;42.25
7182;BME280;3632;42.724;23.298;2023-04-26T12:25:31;94470.41;;;17.55;42.67
7182;BME280;3632;42.724;23.298;2023-04-26T12:27:58;94454.91;;;17.91;41.71
7182;BME280;3632;42.724;23.298;2023-04-26T12:30:27;94486.06;;;17.90;41.19
7182;BME280;3632;42.724;23.298;2023-04-26T12:32:54;94482.59;;;18.04;41.53
7182;BME280;3632;42.724;23.298;2023-04-26T12:35:22;94027.44;;;15.07;42.26
7182;BME280;3632;42.724;23.298;2023-04-26T12:37:48;93918.00;;;14.11;42.50
7182;BME280;3632;42.724;23.298;2023-04-26T12:40:19;94445.56;;;17.33;43.25
7182;BME280;3632;42.724;23.298;2023-04-26T12:42:46;94450.00;;;17.39;53.51
7182;BME280;3632;42.724;23.298;2023-04-26T12:45:15;94451.06;;;18.02;46.26
7182;BME280;3632;42.724;23.298;2023-04-26T12:47:43;94354.06;;;17.16;45.23
7182;BME280;3632;42.724;23.298;2023-04-26T12:50:10;94461.31;;;18.44;47.04
7182;BME280;3632;42.724;23.298;2023-04-26T12:52:38;93959.97;;;15.57;46.10
7182;BME280;3632;42.724;23.298;2023-04-26T12:55:06;94447.06;;;18.48;45.19
7182;BME280;3632;42.724;23.298;2023-04-26T12:57:34;94433.72;;;18.17;43.53
7182;BME280;3632;42.724;23.298;2023-04-26T13:00:02;94427.78;;;17.74;43.32
7182;BME280;3632;42.724;23.298;2023-04-26T13:02:29;94459.28;;;17.91;42.88
7182;BME280;3632;42.724;23.298;2023-04-26T13:04:57;94455.53;;;18.14;42.22
7182;BME280;3632;42.724;23.298;2023-04-26T13:07:25;94202.16;;;15.72;42.57
7182;BME280;3632;42.724;23.298;2023-04-26T13:09:51;93982.50;;;14.38;44.63
7182;BME280;3632;42.724;23.298;2023-04-26T13:12:18;94475.09;;;17.16;42.62
7182;BME280;3632;42.724;23.298;2023-04-26T13:14:46;94461.25;;;16.87;42.11
7182;BME280;3632;42.724;23.298;2023-04-26T13:17:13;94473.16;;;16.74;43.56